sensor_id;sensor_type;location;lat;lon;timestamp;P1;durP1;ratioP1;P2;durP2;ratioP2
32319;SDS011;19080;51.750;5.888;2023-02-13T00:00:10;41.08;;;25.20;;
32319;SDS011;19080;51.750;5.888;2023-02-13T00:02:39;44.53;;;26.73;;
32319;SDS011;19080;51.750;5.888;2023-02-13T00:05:06;44.35;;;26.02;;
32319;SDS011;19080;51.750;5.888;2023-02-13T00:07:32;44.97;;;27.67;;
32319;SDS011;19080;51.750;5.888;2023-02-13T00:09:59;41.90;;;25.63;;
32319;SDS011;19080;51.750;5.888;2023-02-13T00:12:26;42.28;;;27.50;;
32319;SDS011;19080;51.750;5.888;2023-02-13T00:14:52;47.55;;;27.42;;
32319;SDS011;19080;51.750;5.888;2023-02-13T00:17:19;45.83;;;26.13;;
32319;SDS011;19080;51.750;5.888;2023-02-13T00:19:45;43.20;;;26.25;;
32319;SDS011;19080;51.750;5.888;2023-02-13T00:22:12;42.25;;;25.00;;
32319;SDS011;19080;51.750;5.888;2023-02-13T00:24:41;39.25;;;23.95;;
32319;SDS011;19080;51.750;5.888;2023-02-13T00:27:11;41.67;;;25.23;;
32319;SDS011;19080;51.750;5.888;2023-02-13T00:29:37;40.67;;;24.63;;
32319;SDS011;19080;51.750;5.888;2023-02-13T00:32:04;46.03;;;26.98;;
32319;SDS011;19080;51.750;5.888;2023-02-13T00:34:31;43.67;;;25.50;;
32319;SDS011;19080;51.750;5.888;2023-02-13T00:37:00;43.58;;;25.10;;
32319;SDS011;19080;51.750;5.888;2023-02-13T00:39:28;45.47;;;26.20;;
32319;SDS011;19080;51.750;5.888;2023-02-13T00:41:55;40.33;;;24.85;;
32319;SDS011;19080;51.750;5.888;2023-02-13T00:44:21;47.03;;;26.80;;
32319;SDS011;19080;51.750;5.888;2023-02-13T00:46:48;36.92;;;24.17;;
32319;SDS011;19080;51.750;5.888;2023-02-13T00:49:15;42.17;;;26.25;;
32319;SDS011;19080;51.750;5.888;2023-02-13T00:51:42;48.17;;;28.10;;
32319;SDS011;19080;51.750;5.888;2023-02-13T00:54:09;44.88;;;25.85;;
32319;SDS011;19080;51.750;5.888;2023-02-13T00:56:35;41.97;;;24.83;;
32319;SDS011;19080;51.750;5.888;2023-02-13T00:59:04;45.75;;;27.27;;
32319;SDS011;19080;51.750;5.888;2023-02-13T01:01:30;43.75;;;26.38;;
32319;SDS011;19080;51.750;5.888;2023-02-13T01:03:58;43.88;;;27.23;;
32319;SDS011;19080;51.750;5.888;2023-02-13T01:06:26;40.10;;;25.42;;
32319;SDS011;19080;51.750;5.888;2023-02-13T01:08:53;46.95;;;26.92;;
32319;SDS011;19080;51.750;5.888;2023-02-13T01:11:19;40.05;;;25.90;;
32319;SDS011;19080;51.750;5.888;2023-02-13T01:13:46;42.30;;;24.30;;
32319;SDS011;19080;51.750;5.888;2023-02-13T01:16:12;43.97;;;26.73;;
32319;SDS011;19080;51.750;5.888;2023-02-13T01:18:41;41.38;;;25.13;;
32319;SDS011;19080;51.750;5.888;2023-02-13T01:21:08;49.47;;;26.58;;
32319;SDS011;19080;51.750;5.888;2023-02-13T01:23:41;41.58;;;25.02;;
32319;SDS011;19080;51.750;5.888;2023-02-13T01:26:10;45.35;;;26.42;;
32319;SDS011;19080;51.750;5.888;2023-02-13T01:28:42;38.58;;;24.35;;
32319;SDS011;19080;51.750;5.888;2023-02-13T01:31:10;41.67;;;25.95;;
32319;SDS011;19080;51.750;5.888;2023-02-13T01:33:37;43.88;;;27.17;;
32319;SDS011;19080;51.750;5.888;2023-02-13T01:36:08;46.33;;;25.15;;
32319;SDS011;19080;51.750;5.888;2023-02-13T01:38:37;44.63;;;26.17;;
32319;SDS011;19080;51.750;5.888;2023-02-13T01:41:04;43.22;;;25.98;;
32319;SDS011;19080;51.750;5.888;2023-02-13T01:46:12;43.13;;;26.48;;
32319;SDS011;19080;51.750;5.888;2023-02-13T01:48:42;45.92;;;26.90;;
32319;SDS011;19080;51.750;5.888;2023-02-13T01:51:12;39.10;;;25.08;;
32319;SDS011;19080;51.750;5.888;2023-02-13T01:53:49;43.88;;;27.45;;
32319;SDS011;19080;51.750;5.888;2023-02-13T01:56:29;43.08;;;27.02;;
32319;SDS011;19080;51.750;5.888;2023-02-13T01:59:04;42.55;;;26.63;;
32319;SDS011;19080;51.750;5.888;2023-02-13T02:01:36;43.28;;;25.27;;
32319;SDS011;19080;51.750;5.888;2023-02-13T02:04:05;44.60;;;27.10;;
32319;SDS011;19080;51.750;5.888;2023-02-13T02:06:37;45.60;;;27.45;;
32319;SDS011;19080;51.750;5.888;2023-02-13T02:09:13;41.65;;;26.85;;
32319;SDS011;19080;51.750;5.888;2023-02-13T02:17:07;40.67;;;25.83;;
32319;SDS011;19080;51.750;5.888;2023-02-13T02:42:09;41.00;;;25.25;;
32319;SDS011;19080;51.750;5.888;2023-02-13T02:45:07;40.30;;;24.65;;
32319;SDS011;19080;51.750;5.888;2023-02-13T02:47:53;39.17;;;24.20;;
32319;SDS011;19080;51.750;5.888;2023-02-13T02:53:47;44.38;;;24.85;;
32319;SDS011;19080;51.750;5.888;2023-02-13T02:56:30;40.22;;;25.17;;
32319;SDS011;19080;51.750;5.888;2023-02-13T02:59:07;42.53;;;26.70;;
32319;SDS011;19080;51.750;5.888;2023-02-13T03:01:58;41.20;;;24.45;;
32319;SDS011;19080;51.750;5.888;2023-02-13T03:04:50;39.72;;;23.85;;
32319;SDS011;19080;51.750;5.888;2023-02-13T03:07:38;42.67;;;26.08;;
32319;SDS011;19080;51.750;5.888;2023-02-13T03:10:06;37.25;;;23.83;;
32319;SDS011;19080;51.750;5.888;2023-02-13T03:12:55;44.92;;;24.88;;
32319;SDS011;19080;51.750;5.888;2023-02-13T03:15:45;41.58;;;25.30;;
32319;SDS011;19080;51.750;5.888;2023-02-13T03:18:34;38.88;;;25.13;;
32319;SDS011;19080;51.750;5.888;2023-02-13T03:21:30;37.53;;;24.88;;
32319;SDS011;19080;51.750;5.888;2023-02-13T03:24:27;41.75;;;26.00;;
32319;SDS011;19080;51.750;5.888;2023-02-13T03:30:35;39.13;;;24.73;;
32319;SDS011;19080;51.750;5.888;2023-02-13T03:39:06;34.20;;;22.35;;
32319;SDS011;19080;51.750;5.888;2023-02-13T03:44:40;40.70;;;24.20;;
32319;SDS011;19080;51.750;5.888;2023-02-13T03:47:33;39.20;;;24.63;;
32319;SDS011;19080;51.750;5.888;2023-02-13T03:50:01;40.53;;;24.75;;
32319;SDS011;19080;51.750;5.888;2023-02-13T03:52:51;38.67;;;24.27;;
32319;SDS011;19080;51.750;5.888;2023-02-13T03:55:21;37.08;;;23.13;;
32319;SDS011;19080;51.750;5.888;2023-02-13T03:58:13;36.05;;;22.85;;
32319;SDS011;19080;51.750;5.888;2023-02-13T04:01:01;37.05;;;22.98;;
32319;SDS011;19080;51.750;5.888;2023-02-13T04:03:43;33.85;;;21.85;;
32319;SDS011;19080;51.750;5.888;2023-02-13T04:06:12;33.95;;;22.33;;
32319;SDS011;19080;51.750;5.888;2023-02-13T04:08:41;34.55;;;22.70;;
32319;SDS011;19080;51.750;5.888;2023-02-13T04:13:51;31.55;;;20.52;;
32319;SDS011;19080;51.750;5.888;2023-02-13T04:16:44;30.10;;;20.90;;
32319;SDS011;19080;51.750;5.888;2023-02-13T04:19:12;35.90;;;23.50;;
32319;SDS011;19080;51.750;5.888;2023-02-13T04:21:39;38.83;;;21.98;;
32319;SDS011;19080;51.750;5.888;2023-02-13T04:24:06;31.98;;;21.13;;
32319;SDS011;19080;51.750;5.888;2023-02-13T04:26:37;31.77;;;21.98;;
32319;SDS011;19080;51.750;5.888;2023-02-13T04:29:07;33.38;;;21.60;;
32319;SDS011;19080;51.750;5.888;2023-02-13T04:31:34;34.95;;;22.77;;
32319;SDS011;19080;51.750;5.888;2023-02-13T04:34:01;35.65;;;20.67;;
32319;SDS011;19080;51.750;5.888;2023-02-13T04:36:28;33.95;;;21.40;;
32319;SDS011;19080;51.750;5.888;2023-02-13T04:38:55;35.13;;;22.38;;
32319;SDS011;19080;51.750;5.888;2023-02-13T04:41:22;36.67;;;22.38;;
32319;SDS011;19080;51.750;5.888;2023-02-13T04:43:48;34.05;;;20.95;;
32319;SDS011;19080;51.750;5.888;2023-02-13T04:46:17;36.70;;;22.20;;
32319;SDS011;19080;51.750;5.888;2023-02-13T04:48:44;36.10;;;22.40;;
32319;SDS011;19080;51.750;5.888;2023-02-13T04:51:11;35.97;;;22.15;;
32319;SDS011;19080;51.750;5.888;2023-02-13T04:53:38;37.53;;;23.83;;
32319;SDS011;19080;51.750;5.888;2023-02-13T04:56:04;33.25;;;21.98;;
32319;SDS011;19080;51.750;5.888;2023-02-13T04:58:31;34.17;;;21.67;;
32319;SDS011;19080;51.750;5.888;2023-02-13T05:00:58;31.38;;;19.65;;
32319;SDS011;19080;51.750;5.888;2023-02-13T05:03:25;32.55;;;22.02;;
32319;SDS011;19080;51.750;5.888;2023-02-13T05:05:51;31.52;;;19.38;;
32319;SDS011;19080;51.750;5.888;2023-02-13T05:08:18;29.83;;;19.67;;
32319;SDS011;19080;51.750;5.888;2023-02-13T05:10:45;35.88;;;21.30;;
32319;SDS011;19080;51.750;5.888;2023-02-13T05:13:11;29.92;;;19.38;;
32319;SDS011;19080;51.750;5.888;2023-02-13T05:15:39;32.00;;;21.17;;
32319;SDS011;19080;51.750;5.888;2023-02-13T05:18:06;35.20;;;22.60;;
32319;SDS011;19080;51.750;5.888;2023-02-13T05:20:32;32.35;;;20.98;;
32319;SDS011;19080;51.750;5.888;2023-02-13T05:22:59;34.35;;;22.00;;
32319;SDS011;19080;51.750;5.888;2023-02-13T05:25:44;32.22;;;20.42;;
32319;SDS011;19080;51.750;5.888;2023-02-13T05:28:11;32.63;;;20.83;;
32319;SDS011;19080;51.750;5.888;2023-02-13T05:30:56;34.85;;;21.75;;
32319;SDS011;19080;51.750;5.888;2023-02-13T05:33:23;33.33;;;21.50;;
32319;SDS011;19080;51.750;5.888;2023-02-13T05:35:50;32.90;;;21.00;;
32319;SDS011;19080;51.750;5.888;2023-02-13T05:38:17;30.00;;;20.58;;
32319;SDS011;19080;51.750;5.888;2023-02-13T05:40:43;33.17;;;21.15;;
32319;SDS011;19080;51.750;5.888;2023-02-13T05:43:10;33.58;;;21.02;;
32319;SDS011;19080;51.750;5.888;2023-02-13T05:45:37;33.47;;;19.58;;
32319;SDS011;19080;51.750;5.888;2023-02-13T05:48:03;32.13;;;20.77;;
32319;SDS011;19080;51.750;5.888;2023-02-13T05:50:30;32.83;;;21.02;;
32319;SDS011;19080;51.750;5.888;2023-02-13T05:52:57;31.05;;;19.80;;
32319;SDS011;19080;51.750;5.888;2023-02-13T05:55:23;31.67;;;21.42;;
32319;SDS011;19080;51.750;5.888;2023-02-13T05:57:54;31.38;;;20.35;;
32319;SDS011;19080;51.750;5.888;2023-02-13T06:00:21;30.52;;;19.42;;
32319;SDS011;19080;51.750;5.888;2023-02-13T06:02:48;30.80;;;19.33;;
32319;SDS011;19080;51.750;5.888;2023-02-13T06:05:14;30.35;;;19.02;;
32319;SDS011;19080;51.750;5.888;2023-02-13T06:07:41;29.42;;;20.40;;
32319;SDS011;19080;51.750;5.888;2023-02-13T06:10:07;32.28;;;21.02;;
32319;SDS011;19080;51.750;5.888;2023-02-13T06:12:34;32.88;;;20.77;;
32319;SDS011;19080;51.750;5.888;2023-02-13T06:15:01;30.80;;;20.65;;
32319;SDS011;19080;51.750;5.888;2023-02-13T06:17:27;29.98;;;19.70;;
32319;SDS011;19080;51.750;5.888;2023-02-13T06:19:54;31.17;;;18.70;;
32319;SDS011;19080;51.750;5.888;2023-02-13T06:22:20;32.60;;;19.52;;
32319;SDS011;19080;51.750;5.888;2023-02-13T06:24:47;27.63;;;18.50;;
32319;SDS011;19080;51.750;5.888;2023-02-13T06:27:13;29.55;;;18.85;;
32319;SDS011;19080;51.750;5.888;2023-02-13T06:29:40;31.23;;;20.50;;
32319;SDS011;19080;51.750;5.888;2023-02-13T06:32:07;32.05;;;20.02;;
32319;SDS011;19080;51.750;5.888;2023-02-13T06:34:33;32.13;;;21.63;;
32319;SDS011;19080;51.750;5.888;2023-02-13T06:37:00;27.33;;;18.35;;
32319;SDS011;19080;51.750;5.888;2023-02-13T06:39:26;32.30;;;19.10;;
32319;SDS011;19080;51.750;5.888;2023-02-13T06:41:53;30.73;;;19.45;;
32319;SDS011;19080;51.750;5.888;2023-02-13T06:44:19;31.67;;;19.33;;
32319;SDS011;19080;51.750;5.888;2023-02-13T06:46:46;33.80;;;20.08;;
32319;SDS011;19080;51.750;5.888;2023-02-13T06:49:12;31.08;;;19.45;;
32319;SDS011;19080;51.750;5.888;2023-02-13T06:51:39;30.13;;;19.75;;
32319;SDS011;19080;51.750;5.888;2023-02-13T06:54:05;34.45;;;21.52;;
32319;SDS011;19080;51.750;5.888;2023-02-13T06:56:32;31.25;;;20.02;;
32319;SDS011;19080;51.750;5.888;2023-02-13T06:58:59;31.05;;;19.58;;
32319;SDS011;19080;51.750;5.888;2023-02-13T07:01:25;34.17;;;20.73;;
32319;SDS011;19080;51.750;5.888;2023-02-13T07:03:52;32.45;;;20.52;;
32319;SDS011;19080;51.750;5.888;2023-02-13T07:06:19;33.40;;;21.08;;
32319;SDS011;19080;51.750;5.888;2023-02-13T07:08:46;33.75;;;22.38;;
32319;SDS011;19080;51.750;5.888;2023-02-13T07:11:17;34.72;;;21.90;;
32319;SDS011;19080;51.750;5.888;2023-02-13T07:13:44;30.85;;;20.45;;
32319;SDS011;19080;51.750;5.888;2023-02-13T07:16:11;33.78;;;20.92;;
32319;SDS011;19080;51.750;5.888;2023-02-13T07:18:38;33.25;;;21.65;;
32319;SDS011;19080;51.750;5.888;2023-02-13T07:21:04;33.20;;;21.13;;
32319;SDS011;19080;51.750;5.888;2023-02-13T07:23:31;30.58;;;20.00;;
32319;SDS011;19080;51.750;5.888;2023-02-13T07:25:58;32.38;;;19.52;;
32319;SDS011;19080;51.750;5.888;2023-02-13T07:28:26;28.60;;;19.23;;
32319;SDS011;19080;51.750;5.888;2023-02-13T07:30:53;34.80;;;22.63;;
32319;SDS011;19080;51.750;5.888;2023-02-13T07:33:22;33.42;;;21.42;;
32319;SDS011;19080;51.750;5.888;2023-02-13T07:35:49;28.23;;;19.63;;
32319;SDS011;19080;51.750;5.888;2023-02-13T07:38:17;34.75;;;22.10;;
32319;SDS011;19080;51.750;5.888;2023-02-13T07:40:44;34.60;;;22.60;;
32319;SDS011;19080;51.750;5.888;2023-02-13T07:43:11;37.25;;;22.95;;
32319;SDS011;19080;51.750;5.888;2023-02-13T07:45:41;32.83;;;20.88;;
32319;SDS011;19080;51.750;5.888;2023-02-13T07:48:08;31.23;;;21.17;;
32319;SDS011;19080;51.750;5.888;2023-02-13T07:50:34;30.40;;;21.15;;
32319;SDS011;19080;51.750;5.888;2023-02-13T07:53:01;28.02;;;19.45;;
32319;SDS011;19080;51.750;5.888;2023-02-13T07:55:28;27.48;;;19.70;;
32319;SDS011;19080;51.750;5.888;2023-02-13T07:57:55;27.42;;;18.45;;
32319;SDS011;19080;51.750;5.888;2023-02-13T08:00:22;24.77;;;17.30;;
32319;SDS011;19080;51.750;5.888;2023-02-13T08:02:48;24.10;;;16.60;;
32319;SDS011;19080;51.750;5.888;2023-02-13T08:05:15;22.98;;;16.60;;
32319;SDS011;19080;51.750;5.888;2023-02-13T08:07:42;23.08;;;17.08;;
32319;SDS011;19080;51.750;5.888;2023-02-13T08:10:10;20.55;;;15.90;;
32319;SDS011;19080;51.750;5.888;2023-02-13T08:12:56;21.23;;;15.95;;
32319;SDS011;19080;51.750;5.888;2023-02-13T08:15:23;21.98;;;15.57;;
32319;SDS011;19080;51.750;5.888;2023-02-13T08:17:51;21.67;;;15.85;;
32319;SDS011;19080;51.750;5.888;2023-02-13T08:20:17;25.40;;;17.25;;
32319;SDS011;19080;51.750;5.888;2023-02-13T08:22:44;23.33;;;17.63;;
32319;SDS011;19080;51.750;5.888;2023-02-13T08:25:11;22.83;;;17.25;;
32319;SDS011;19080;51.750;5.888;2023-02-13T08:27:38;22.77;;;17.75;;
32319;SDS011;19080;51.750;5.888;2023-02-13T08:30:04;20.30;;;15.93;;
32319;SDS011;19080;51.750;5.888;2023-02-13T08:32:32;20.42;;;15.43;;
32319;SDS011;19080;51.750;5.888;2023-02-13T08:35:18;20.23;;;15.80;;
32319;SDS011;19080;51.750;5.888;2023-02-13T08:37:44;19.13;;;15.43;;
32319;SDS011;19080;51.750;5.888;2023-02-13T08:40:13;20.27;;;15.05;;
32319;SDS011;19080;51.750;5.888;2023-02-13T08:42:40;17.70;;;14.02;;
32319;SDS011;19080;51.750;5.888;2023-02-13T08:45:06;19.60;;;15.27;;
32319;SDS011;19080;51.750;5.888;2023-02-13T08:47:36;19.77;;;15.05;;
32319;SDS011;19080;51.750;5.888;2023-02-13T08:50:03;19.55;;;15.27;;
32319;SDS011;19080;51.750;5.888;2023-02-13T08:52:30;19.42;;;15.90;;
32319;SDS011;19080;51.750;5.888;2023-02-13T08:54:57;19.10;;;15.68;;
32319;SDS011;19080;51.750;5.888;2023-02-13T08:57:24;19.40;;;15.60;;
32319;SDS011;19080;51.750;5.888;2023-02-13T08:59:50;20.23;;;15.35;;
32319;SDS011;19080;51.750;5.888;2023-02-13T09:02:17;18.75;;;14.85;;
32319;SDS011;19080;51.750;5.888;2023-02-13T09:04:43;19.80;;;15.27;;
32319;SDS011;19080;51.750;5.888;2023-02-13T09:07:10;17.08;;;14.48;;
32319;SDS011;19080;51.750;5.888;2023-02-13T09:09:36;19.95;;;14.73;;
32319;SDS011;19080;51.750;5.888;2023-02-13T09:12:03;17.83;;;14.90;;
32319;SDS011;19080;51.750;5.888;2023-02-13T09:14:30;19.48;;;16.17;;
32319;SDS011;19080;51.750;5.888;2023-02-13T09:16:57;19.52;;;15.70;;
32319;SDS011;19080;51.750;5.888;2023-02-13T09:19:23;17.73;;;15.20;;
32319;SDS011;19080;51.750;5.888;2023-02-13T09:21:50;18.60;;;15.85;;
32319;SDS011;19080;51.750;5.888;2023-02-13T09:24:16;21.75;;;16.50;;
32319;SDS011;19080;51.750;5.888;2023-02-13T09:26:43;21.33;;;16.42;;
32319;SDS011;19080;51.750;5.888;2023-02-13T09:29:09;20.80;;;16.05;;
32319;SDS011;19080;51.750;5.888;2023-02-13T09:31:36;19.77;;;15.80;;
32319;SDS011;19080;51.750;5.888;2023-02-13T09:34:03;20.45;;;15.65;;
32319;SDS011;19080;51.750;5.888;2023-02-13T09:36:30;19.55;;;15.50;;
32319;SDS011;19080;51.750;5.888;2023-02-13T09:38:56;19.40;;;15.75;;
32319;SDS011;19080;51.750;5.888;2023-02-13T09:41:27;19.63;;;15.25;;
32319;SDS011;19080;51.750;5.888;2023-02-13T09:44:00;19.27;;;15.45;;
32319;SDS011;19080;51.750;5.888;2023-02-13T09:46:36;19.33;;;15.15;;
32319;SDS011;19080;51.750;5.888;2023-02-13T09:49:08;17.60;;;14.68;;
32319;SDS011;19080;51.750;5.888;2023-02-13T09:51:39;17.55;;;14.55;;
32319;SDS011;19080;51.750;5.888;2023-02-13T09:54:10;22.55;;;15.68;;
32319;SDS011;19080;51.750;5.888;2023-02-13T09:56:47;17.50;;;15.30;;
32319;SDS011;19080;51.750;5.888;2023-02-13T10:05:06;16.88;;;14.45;;
32319;SDS011;19080;51.750;5.888;2023-02-13T10:16:28;18.50;;;14.30;;
32319;SDS011;19080;51.750;5.888;2023-02-13T10:19:44;20.33;;;14.13;;
32319;SDS011;19080;51.750;5.888;2023-02-13T10:25:15;16.52;;;14.07;;
32319;SDS011;19080;51.750;5.888;2023-02-13T10:27:54;15.55;;;13.85;;
32319;SDS011;19080;51.750;5.888;2023-02-13T10:30:29;16.60;;;14.07;;
32319;SDS011;19080;51.750;5.888;2023-02-13T10:33:00;16.98;;;14.23;;
32319;SDS011;19080;51.750;5.888;2023-02-13T10:38:39;16.55;;;14.32;;
32319;SDS011;19080;51.750;5.888;2023-02-13T10:43:58;16.10;;;13.63;;
32319;SDS011;19080;51.750;5.888;2023-02-13T10:46:40;17.38;;;14.07;;
32319;SDS011;19080;51.750;5.888;2023-02-13T10:49:22;15.60;;;13.88;;
32319;SDS011;19080;51.750;5.888;2023-02-13T10:51:58;16.73;;;14.50;;
32319;SDS011;19080;51.750;5.888;2023-02-13T11:00:17;18.00;;;13.95;;
32319;SDS011;19080;51.750;5.888;2023-02-13T11:03:01;18.33;;;14.35;;
32319;SDS011;19080;51.750;5.888;2023-02-13T11:05:31;15.63;;;12.70;;
32319;SDS011;19080;51.750;5.888;2023-02-13T11:08:02;16.55;;;13.68;;
32319;SDS011;19080;51.750;5.888;2023-02-13T11:10:29;18.95;;;14.80;;
32319;SDS011;19080;51.750;5.888;2023-02-13T11:12:56;17.33;;;14.80;;
32319;SDS011;19080;51.750;5.888;2023-02-13T11:15:39;16.27;;;13.50;;
32319;SDS011;19080;51.750;5.888;2023-02-13T11:18:14;15.95;;;13.27;;
32319;SDS011;19080;51.750;5.888;2023-02-13T11:20:45;18.13;;;13.20;;
32319;SDS011;19080;51.750;5.888;2023-02-13T11:25:56;16.42;;;13.23;;
32319;SDS011;19080;51.750;5.888;2023-02-13T11:31:07;16.05;;;13.45;;
32319;SDS011;19080;51.750;5.888;2023-02-13T11:33:36;17.30;;;14.60;;
32319;SDS011;19080;51.750;5.888;2023-02-13T11:36:05;15.73;;;13.98;;
32319;SDS011;19080;51.750;5.888;2023-02-13T11:38:35;15.35;;;12.70;;
32319;SDS011;19080;51.750;5.888;2023-02-13T11:41:09;16.02;;;12.90;;
32319;SDS011;19080;51.750;5.888;2023-02-13T11:43:47;14.75;;;13.10;;
32319;SDS011;19080;51.750;5.888;2023-02-13T11:46:19;15.57;;;12.98;;
32319;SDS011;19080;51.750;5.888;2023-02-13T11:49:03;15.10;;;13.48;;
32319;SDS011;19080;51.750;5.888;2023-02-13T11:54:01;15.40;;;13.77;;
32319;SDS011;19080;51.750;5.888;2023-02-13T11:56:28;17.55;;;13.95;;
32319;SDS011;19080;51.750;5.888;2023-02-13T11:59:30;14.30;;;12.63;;
32319;SDS011;19080;51.750;5.888;2023-02-13T12:02:12;15.25;;;12.80;;
32319;SDS011;19080;51.750;5.888;2023-02-13T12:04:48;16.08;;;13.15;;
32319;SDS011;19080;51.750;5.888;2023-02-13T12:10:07;17.10;;;14.23;;
32319;SDS011;19080;51.750;5.888;2023-02-13T12:12:42;14.32;;;12.82;;
32319;SDS011;19080;51.750;5.888;2023-02-13T12:15:16;15.70;;;13.50;;
32319;SDS011;19080;51.750;5.888;2023-02-13T12:17:46;14.70;;;12.63;;
32319;SDS011;19080;51.750;5.888;2023-02-13T12:20:22;16.70;;;13.63;;
32319;SDS011;19080;51.750;5.888;2023-02-13T12:25:56;14.73;;;12.93;;
32319;SDS011;19080;51.750;5.888;2023-02-13T12:50:55;19.60;;;14.98;;
32319;SDS011;19080;51.750;5.888;2023-02-13T12:53:26;17.00;;;14.30;;
32319;SDS011;19080;51.750;5.888;2023-02-13T12:56:04;17.85;;;13.73;;
32319;SDS011;19080;51.750;5.888;2023-02-13T12:58:56;18.15;;;15.10;;
32319;SDS011;19080;51.750;5.888;2023-02-13T13:15:33;15.75;;;13.77;;
32319;SDS011;19080;51.750;5.888;2023-02-13T13:28:57;13.80;;;12.30;;
32319;SDS011;19080;51.750;5.888;2023-02-13T13:31:26;16.10;;;12.63;;
32319;SDS011;19080;51.750;5.888;2023-02-13T13:33:55;15.30;;;13.10;;
32319;SDS011;19080;51.750;5.888;2023-02-13T13:36:42;14.98;;;12.25;;
32319;SDS011;19080;51.750;5.888;2023-02-13T13:39:40;13.73;;;11.63;;
32319;SDS011;19080;51.750;5.888;2023-02-13T13:45:22;13.15;;;11.10;;
32319;SDS011;19080;51.750;5.888;2023-02-13T13:50:49;14.38;;;12.70;;
32319;SDS011;19080;51.750;5.888;2023-02-13T13:53:18;17.70;;;13.85;;
32319;SDS011;19080;51.750;5.888;2023-02-13T14:04:00;16.10;;;13.10;;
32319;SDS011;19080;51.750;5.888;2023-02-13T14:14:51;16.40;;;12.77;;
32319;SDS011;19080;51.750;5.888;2023-02-13T14:20:31;16.00;;;13.18;;
32319;SDS011;19080;51.750;5.888;2023-02-13T14:23:49;16.77;;;13.18;;
32319;SDS011;19080;51.750;5.888;2023-02-13T14:31:24;16.17;;;12.80;;
32319;SDS011;19080;51.750;5.888;2023-02-13T14:34:03;15.90;;;12.43;;
32319;SDS011;19080;51.750;5.888;2023-02-13T14:36:38;18.13;;;13.85;;
32319;SDS011;19080;51.750;5.888;2023-02-13T14:44:14;14.93;;;12.68;;
32319;SDS011;19080;51.750;5.888;2023-02-13T14:46:45;15.93;;;12.38;;
32319;SDS011;19080;51.750;5.888;2023-02-13T14:49:24;14.35;;;12.27;;
32319;SDS011;19080;51.750;5.888;2023-02-13T14:51:55;14.98;;;12.10;;
32319;SDS011;19080;51.750;5.888;2023-02-13T14:54:25;15.80;;;12.77;;
32319;SDS011;19080;51.750;5.888;2023-02-13T14:56:58;15.82;;;12.50;;
32319;SDS011;19080;51.750;5.888;2023-02-13T14:59:32;15.25;;;13.02;;
32319;SDS011;19080;51.750;5.888;2023-02-13T15:05:03;15.43;;;12.13;;
32319;SDS011;19080;51.750;5.888;2023-02-13T15:07:34;17.48;;;13.85;;
32319;SDS011;19080;51.750;5.888;2023-02-13T15:10:06;16.23;;;13.43;;
32319;SDS011;19080;51.750;5.888;2023-02-13T15:13:00;17.13;;;14.20;;
32319;SDS011;19080;51.750;5.888;2023-02-13T15:17:59;17.25;;;14.30;;
32319;SDS011;19080;51.750;5.888;2023-02-13T15:20:29;18.45;;;13.65;;
32319;SDS011;19080;51.750;5.888;2023-02-13T15:22:59;15.93;;;13.00;;
32319;SDS011;19080;51.750;5.888;2023-02-13T15:25:33;18.38;;;14.30;;
32319;SDS011;19080;51.750;5.888;2023-02-13T15:28:04;18.80;;;14.27;;
32319;SDS011;19080;51.750;5.888;2023-02-13T15:30:51;21.45;;;14.63;;
32319;SDS011;19080;51.750;5.888;2023-02-13T15:33:22;18.75;;;14.35;;
32319;SDS011;19080;51.750;5.888;2023-02-13T15:35:53;19.08;;;13.10;;
32319;SDS011;19080;51.750;5.888;2023-02-13T15:38:29;22.13;;;14.80;;
32319;SDS011;19080;51.750;5.888;2023-02-13T15:41:02;20.33;;;14.27;;
32319;SDS011;19080;51.750;5.888;2023-02-13T15:43:32;18.55;;;14.38;;
32319;SDS011;19080;51.750;5.888;2023-02-13T15:46:03;18.48;;;14.20;;
32319;SDS011;19080;51.750;5.888;2023-02-13T15:48:32;19.70;;;14.68;;
32319;SDS011;19080;51.750;5.888;2023-02-13T15:51:00;19.38;;;14.77;;
32319;SDS011;19080;51.750;5.888;2023-02-13T15:53:28;19.70;;;14.52;;
32319;SDS011;19080;51.750;5.888;2023-02-13T15:56:00;19.90;;;14.70;;
32319;SDS011;19080;51.750;5.888;2023-02-13T15:58:29;19.60;;;14.27;;
32319;SDS011;19080;51.750;5.888;2023-02-13T16:01:02;20.58;;;15.40;;
32319;SDS011;19080;51.750;5.888;2023-02-13T16:03:32;23.92;;;14.55;;
32319;SDS011;19080;51.750;5.888;2023-02-13T16:06:01;19.25;;;13.68;;
32319;SDS011;19080;51.750;5.888;2023-02-13T16:08:34;15.85;;;13.57;;
32319;SDS011;19080;51.750;5.888;2023-02-13T16:13:51;20.60;;;14.25;;
32319;SDS011;19080;51.750;5.888;2023-02-13T16:21:47;22.08;;;14.98;;
32319;SDS011;19080;51.750;5.888;2023-02-13T16:24:15;20.13;;;13.55;;
32319;SDS011;19080;51.750;5.888;2023-02-13T16:26:42;17.55;;;14.18;;
32319;SDS011;19080;51.750;5.888;2023-02-13T16:29:10;18.95;;;13.77;;
32319;SDS011;19080;51.750;5.888;2023-02-13T16:31:46;17.20;;;13.23;;
32319;SDS011;19080;51.750;5.888;2023-02-13T16:36:54;20.92;;;15.10;;
32319;SDS011;19080;51.750;5.888;2023-02-13T16:39:26;20.05;;;13.27;;
32319;SDS011;19080;51.750;5.888;2023-02-13T16:41:55;19.23;;;13.48;;
32319;SDS011;19080;51.750;5.888;2023-02-13T16:44:27;19.13;;;13.45;;
32319;SDS011;19080;51.750;5.888;2023-02-13T16:47:03;21.73;;;14.68;;
32319;SDS011;19080;51.750;5.888;2023-02-13T16:49:31;17.23;;;11.93;;
32319;SDS011;19080;51.750;5.888;2023-02-13T16:52:07;18.20;;;13.20;;
32319;SDS011;19080;51.750;5.888;2023-02-13T17:04:38;19.52;;;13.93;;
32319;SDS011;19080;51.750;5.888;2023-02-13T17:07:10;24.55;;;15.75;;
32319;SDS011;19080;51.750;5.888;2023-02-13T17:09:42;28.40;;;21.42;;
32319;SDS011;19080;51.750;5.888;2023-02-13T17:12:12;29.90;;;19.60;;
32319;SDS011;19080;51.750;5.888;2023-02-13T17:14:44;29.38;;;19.80;;
32319;SDS011;19080;51.750;5.888;2023-02-13T17:17:13;29.80;;;18.50;;
32319;SDS011;19080;51.750;5.888;2023-02-13T17:19:44;26.50;;;18.42;;
32319;SDS011;19080;51.750;5.888;2023-02-13T17:22:17;27.63;;;18.77;;
32319;SDS011;19080;51.750;5.888;2023-02-13T17:24:47;21.55;;;14.85;;
32319;SDS011;19080;51.750;5.888;2023-02-13T17:27:14;26.60;;;17.35;;
32319;SDS011;19080;51.750;5.888;2023-02-13T17:29:40;24.05;;;15.82;;
32319;SDS011;19080;51.750;5.888;2023-02-13T17:32:07;26.83;;;18.75;;
32319;SDS011;19080;51.750;5.888;2023-02-13T17:34:40;30.42;;;19.92;;
32319;SDS011;19080;51.750;5.888;2023-02-13T17:37:11;37.28;;;21.42;;
32319;SDS011;19080;51.750;5.888;2023-02-13T17:39:47;30.40;;;18.25;;
32319;SDS011;19080;51.750;5.888;2023-02-13T17:42:15;27.55;;;17.65;;
32319;SDS011;19080;51.750;5.888;2023-02-13T17:44:44;29.10;;;17.35;;
32319;SDS011;19080;51.750;5.888;2023-02-13T17:47:11;35.38;;;23.80;;
32319;SDS011;19080;51.750;5.888;2023-02-13T17:49:38;36.25;;;24.35;;
32319;SDS011;19080;51.750;5.888;2023-02-13T17:52:04;33.78;;;22.27;;
32319;SDS011;19080;51.750;5.888;2023-02-13T17:54:31;39.28;;;23.25;;
32319;SDS011;19080;51.750;5.888;2023-02-13T17:57:01;36.67;;;22.80;;
32319;SDS011;19080;51.750;5.888;2023-02-13T17:59:27;43.60;;;27.63;;
32319;SDS011;19080;51.750;5.888;2023-02-13T18:01:54;38.17;;;24.48;;
32319;SDS011;19080;51.750;5.888;2023-02-13T18:04:21;34.97;;;22.90;;